Time;durP1;ratioP1;P1;durP2;ratioP2;P2;SDS_P1;SDS_P2;PMS_P1;PMS_P2;Temp;Humidity;BMP_temperature;BMP_pressure;BME280_temperature;BME280_humidity;BME280_pressure;Samples;Min_cycle;Max_cycle;Signal;HPM_P1;HPM_P2
2022/05/17 00:00:09;;;;;;;1.88;1.38;;;;;;;;;;5029654;28;20049;-75
2022/05/17 00:02:39;;;;;;;4.10;1.55;;;;;;;;;;5026583;28;20123;-75
2022/05/17 00:05:08;;;;;;;2.28;1.50;;;;;;;;;;5030179;28;20132;-75
2022/05/17 00:07:37;;;;;;;3.42;1.50;;;;;;;;;;5029085;28;20111;-75
2022/05/17 00:10:06;;;;;;;2.85;1.58;;;;;;;;;;5025297;28;20094;-75
2022/05/17 00:12:34;;;;;;;4.50;1.55;;;;;;;;;;5013449;28;20042;-74
2022/05/17 00:15:02;;;;;;;2.05;1.27;;;;;;;;;;5023526;28;20483;-74
2022/05/17 00:17:31;;;;;;;2.08;1.33;;;;;;;;;;5027075;28;20037;-75
2022/05/17 00:20:01;;;;;;;5.35;1.75;;;;;;;;;;5027640;28;20129;-76
2022/05/17 00:22:29;;;;;;;3.65;1.75;;;;;;;;;;5017344;28;20053;-74
2022/05/17 00:24:57;;;;;;;2.33;1.65;;;;;;;;;;5017930;28;20165;-74
2022/05/17 00:27:25;;;;;;;2.70;1.65;;;;;;;;;;5027317;28;20528;-74
2022/05/17 00:29:54;;;;;;;3.17;1.45;;;;;;;;;;5028720;28;20136;-74
2022/05/17 00:32:22;;;;;;;4.53;1.92;;;;;;;;;;5028669;28;20087;-75
2022/05/17 00:34:50;;;;;;;2.42;1.50;;;;;;;;;;5024255;28;20135;-74
2022/05/17 00:37:21;;;;;;;2.03;1.48;;;;;;;;;;5022966;28;21060;-75
2022/05/17 00:39:49;;;;;;;4.47;1.80;;;;;;;;;;5027339;28;20137;-74
2022/05/17 00:42:17;;;;;;;4.07;1.88;;;;;;;;;;5025218;28;20406;-74
2022/05/17 00:44:46;;;;;;;6.15;1.70;;;;;;;;;;5017895;28;20045;-74
2022/05/17 00:47:17;;;;;;;4.03;1.75;;;;;;;;;;5027165;28;20045;-74
2022/05/17 00:49:49;;;;;;;8.40;1.98;;;;;;;;;;5029717;28;20049;-74
2022/05/17 00:52:19;;;;;;;5.97;1.85;;;;;;;;;;5025800;28;20173;-74
2022/05/17 00:54:49;;;;;;;7.20;2.35;;;;;;;;;;5025995;28;20148;-74
2022/05/17 00:57:22;;;;;;;5.03;1.80;;;;;;;;;;5027568;28;20493;-74
2022/05/17 00:59:51;;;;;;;4.75;2.25;;;;;;;;;;5028985;28;20060;-74
2022/05/17 01:02:19;;;;;;;4.38;2.10;;;;;;;;;;5017687;28;20542;-74
2022/05/17 01:04:47;;;;;;;5.32;1.70;;;;;;;;;;5021144;28;20053;-74
2022/05/17 01:07:18;;;;;;;5.53;2.05;;;;;;;;;;5022336;28;20502;-74
2022/05/17 01:09:46;;;;;;;3.33;1.90;;;;;;;;;;5024533;28;20054;-75
2022/05/17 01:12:16;;;;;;;4.57;2.30;;;;;;;;;;5022805;28;20046;-74
2022/05/17 01:14:58;;;;;;;4.55;2.15;;;;;;;;;;5020059;28;20569;-74
2022/05/17 01:17:27;;;;;;;7.95;2.15;;;;;;;;;;5023315;28;20440;-74
2022/05/17 01:19:56;;;;;;;5.15;1.98;;;;;;;;;;5021545;28;20049;-74
2022/05/17 01:22:26;;;;;;;4.07;1.98;;;;;;;;;;5027027;28;20084;-74
2022/05/17 01:24:54;;;;;;;4.60;2.05;;;;;;;;;;5025222;28;20089;-74
2022/05/17 01:27:26;;;;;;;4.32;1.85;;;;;;;;;;5021499;28;20137;-74
2022/05/17 01:29:55;;;;;;;5.75;2.63;;;;;;;;;;5019554;28;20166;-74
2022/05/17 01:32:23;;;;;;;6.05;2.22;;;;;;;;;;5025292;28;20041;-73
2022/05/17 01:34:51;;;;;;;6.30;2.22;;;;;;;;;;5027409;28;20132;-73
2022/05/17 01:37:20;;;;;;;4.75;2.53;;;;;;;;;;5024880;28;20041;-73
2022/05/17 01:39:49;;;;;;;6.85;2.92;;;;;;;;;;5024463;28;20121;-73
2022/05/17 01:42:17;;;;;;;5.32;2.40;;;;;;;;;;5022965;28;20045;-74
2022/05/17 01:44:46;;;;;;;4.80;2.45;;;;;;;;;;5020907;28;20136;-73
2022/05/17 01:47:15;;;;;;;4.15;2.50;;;;;;;;;;5027672;28;20073;-74
2022/05/17 01:49:43;;;;;;;4.20;2.40;;;;;;;;;;5028780;28;20050;-73
2022/05/17 01:52:11;;;;;;;5.13;2.47;;;;;;;;;;5026477;28;20132;-73
2022/05/17 01:54:40;;;;;;;5.97;2.70;;;;;;;;;;5029615;28;20116;-73
2022/05/17 01:57:09;;;;;;;3.25;2.05;;;;;;;;;;5024818;28;20128;-73
2022/05/17 01:59:38;;;;;;;6.60;2.00;;;;;;;;;;5025234;28;20093;-73
2022/05/17 02:02:06;;;;;;;4.55;1.83;;;;;;;;;;5026781;28;20054;-74
2022/05/17 02:04:34;;;;;;;2.22;1.63;;;;;;;;;;5021714;28;20049;-74
2022/05/17 02:07:03;;;;;;;3.08;2.00;;;;;;;;;;5027074;28;20548;-73
2022/05/17 02:09:31;;;;;;;5.68;2.47;;;;;;;;;;5025227;28;20037;-73
2022/05/17 02:11:59;;;;;;;8.10;1.75;;;;;;;;;;5028171;28;20344;-74
2022/05/17 02:14:29;;;;;;;2.53;1.60;;;;;;;;;;5030305;28;20142;-74
2022/05/17 02:16:59;;;;;;;5.45;2.17;;;;;;;;;;5027236;28;20585;-73
2022/05/17 02:19:29;;;;;;;2.28;1.70;;;;;;;;;;5028553;28;20485;-73
2022/05/17 02:21:57;;;;;;;3.53;1.83;;;;;;;;;;5030768;28;20088;-73
2022/05/17 02:24:27;;;;;;;5.80;1.98;;;;;;;;;;5025383;28;20537;-73
2022/05/17 02:26:55;;;;;;;7.32;2.40;;;;;;;;;;5022468;28;20077;-73
2022/05/17 02:29:24;;;;;;;3.40;1.52;;;;;;;;;;5023001;28;20056;-73
2022/05/17 02:31:53;;;;;;;4.45;2.10;;;;;;;;;;5022086;28;20057;-73
2022/05/17 02:34:22;;;;;;;3.42;1.83;;;;;;;;;;5024734;28;20073;-72
2022/05/17 02:36:50;;;;;;;5.93;2.28;;;;;;;;;;5031362;28;20093;-72
2022/05/17 02:39:19;;;;;;;5.25;2.05;;;;;;;;;;5029944;28;20049;-73
2022/05/17 02:41:47;;;;;;;3.65;2.17;;;;;;;;;;5025616;28;20136;-74
2022/05/17 02:44:15;;;;;;;4.32;2.10;;;;;;;;;;5026990;28;20220;-73
2022/05/17 02:46:43;;;;;;;3.88;2.22;;;;;;;;;;5031826;28;20072;-73
2022/05/17 02:49:13;;;;;;;4.88;2.30;;;;;;;;;;5028991;28;20477;-73
2022/05/17 02:51:41;;;;;;;2.28;1.83;;;;;;;;;;5030051;28;20148;-73
2022/05/17 02:54:10;;;;;;;3.00;1.80;;;;;;;;;;5028519;28;20080;-73
2022/05/17 02:56:39;;;;;;;6.00;2.40;;;;;;;;;;5031753;28;20110;-73
2022/05/17 02:59:07;;;;;;;3.80;1.60;;;;;;;;;;5028654;28;20111;-74
2022/05/17 03:01:35;;;;;;;4.68;2.30;;;;;;;;;;5024701;28;20156;-73
2022/05/17 03:04:04;;;;;;;5.07;2.50;;;;;;;;;;5025978;28;20081;-73
2022/05/17 03:06:34;;;;;;;5.97;2.33;;;;;;;;;;5030324;28;20489;-73
2022/05/17 03:09:03;;;;;;;5.57;2.70;;;;;;;;;;5027523;28;20088;-73
2022/05/17 03:11:31;;;;;;;5.82;2.00;;;;;;;;;;5017922;28;20147;-72
2022/05/17 03:13:59;;;;;;;6.15;2.13;;;;;;;;;;5029758;28;20124;-73
2022/05/17 03:16:30;;;;;;;4.03;2.40;;;;;;;;;;5026525;28;20081;-73
2022/05/17 03:18:59;;;;;;;6.35;2.00;;;;;;;;;;5020380;28;20037;-73
2022/05/17 03:21:27;;;;;;;7.43;2.47;;;;;;;;;;5028190;28;20045;-73
2022/05/17 03:23:57;;;;;;;8.68;2.28;;;;;;;;;;5030283;28;20133;-72
2022/05/17 03:26:25;;;;;;;9.25;2.40;;;;;;;;;;5026496;28;20058;-73
2022/05/17 03:28:54;;;;;;;14.27;2.00;;;;;;;;;;5025895;28;20046;-75
2022/05/17 03:31:22;;;;;;;6.28;2.47;;;;;;;;;;5023527;28;20183;-73
2022/05/17 03:33:50;;;;;;;6.07;2.47;;;;;;;;;;5029536;28;20050;-72
2022/05/17 03:36:19;;;;;;;3.55;2.00;;;;;;;;;;5014808;28;20073;-75
2022/05/17 03:38:47;;;;;;;8.52;2.63;;;;;;;;;;5019053;28;20160;-72
2022/05/17 03:41:17;;;;;;;6.68;2.35;;;;;;;;;;5026306;28;20139;-73
2022/05/17 03:43:45;;;;;;;4.35;2.05;;;;;;;;;;5023491;28;20132;-73
2022/05/17 03:46:14;;;;;;;3.25;2.22;;;;;;;;;;5028740;28;20092;-72
2022/05/17 03:48:42;;;;;;;4.50;2.47;;;;;;;;;;5026242;28;20250;-73
2022/05/17 03:51:14;;;;;;;3.15;2.03;;;;;;;;;;5026749;28;20154;-73
2022/05/17 03:53:42;;;;;;;5.97;2.72;;;;;;;;;;5025034;28;20473;-72
2022/05/17 03:56:10;;;;;;;6.70;2.05;;;;;;;;;;5028470;28;20541;-74
2022/05/17 03:58:40;;;;;;;7.10;2.40;;;;;;;;;;5019642;28;20179;-72
2022/05/17 04:01:08;;;;;;;2.45;1.80;;;;;;;;;;5020931;28;20057;-73
2022/05/17 04:03:37;;;;;;;5.10;2.58;;;;;;;;;;5024834;28;20084;-72
2022/05/17 04:06:08;;;;;;;4.50;2.63;;;;;;;;;;5026467;28;20049;-72
2022/05/17 04:08:37;;;;;;;4.78;2.22;;;;;;;;;;5023198;28;20189;-73
2022/05/17 04:11:10;;;;;;;4.90;1.90;;;;;;;;;;5024867;28;20049;-74
2022/05/17 04:13:38;;;;;;;6.13;2.50;;;;;;;;;;5026230;28;20132;-73
2022/05/17 04:16:08;;;;;;;4.43;2.30;;;;;;;;;;5028604;28;20132;-72
2022/05/17 04:18:36;;;;;;;10.05;2.55;;;;;;;;;;5023614;28;20406;-72
2022/05/17 04:21:07;;;;;;;5.82;3.10;;;;;;;;;;5025394;28;20049;-73
2022/05/17 04:23:37;;;;;;;3.15;2.10;;;;;;;;;;5025561;28;20140;-72
2022/05/17 04:26:09;;;;;;;3.13;2.45;;;;;;;;;;5025985;28;20076;-72
2022/05/17 04:28:37;;;;;;;9.07;2.53;;;;;;;;;;5023347;28;20124;-72
2022/05/17 04:31:10;;;;;;;4.45;2.60;;;;;;;;;;5024110;28;20451;-72
2022/05/17 04:33:38;;;;;;;6.57;2.55;;;;;;;;;;5024772;28;20477;-74
2022/05/17 04:36:10;;;;;;;5.60;2.78;;;;;;;;;;5023991;28;20085;-72
2022/05/17 04:38:38;;;;;;;4.70;2.55;;;;;;;;;;5027259;28;20536;-72
2022/05/17 04:41:07;;;;;;;3.90;2.65;;;;;;;;;;5020088;28;20077;-72
2022/05/17 04:43:35;;;;;;;7.78;2.85;;;;;;;;;;5028805;28;20080;-72
2022/05/17 04:46:06;;;;;;;6.38;2.53;;;;;;;;;;5024181;28;20456;-72
2022/05/17 04:48:36;;;;;;;5.90;2.58;;;;;;;;;;5019680;28;20041;-72
2022/05/17 04:51:07;;;;;;;12.38;3.30;;;;;;;;;;5015767;28;20128;-72
2022/05/17 04:53:36;;;;;;;4.50;2.13;;;;;;;;;;5023830;28;20412;-73
2022/05/17 04:56:07;;;;;;;5.18;2.72;;;;;;;;;;5021669;28;20140;-74
2022/05/17 04:58:36;;;;;;;5.07;2.80;;;;;;;;;;5019937;28;20132;-72
2022/05/17 05:01:07;;;;;;;5.13;2.55;;;;;;;;;;5018471;28;20145;-72
2022/05/17 05:03:37;;;;;;;5.88;2.95;;;;;;;;;;5021633;28;20092;-73
2022/05/17 05:06:08;;;;;;;5.95;2.78;;;;;;;;;;5013249;28;20593;-73
2022/05/17 05:08:36;;;;;;;9.63;3.13;;;;;;;;;;5016116;28;20053;-74
2022/05/17 05:11:08;;;;;;;4.13;2.75;;;;;;;;;;5016417;28;20144;-73
2022/05/17 05:13:37;;;;;;;6.22;2.83;;;;;;;;;;5018271;28;20052;-73
2022/05/17 05:16:11;;;;;;;6.78;3.40;;;;;;;;;;5022514;28;20148;-72
2022/05/17 05:18:40;;;;;;;;;;;;;;;;;;5013992;28;20497;-73
2022/05/17 05:21:11;;;;;;;4.82;3.05;;;;;;;;;;5017787;28;19964;-73
2022/05/17 05:23:41;;;;;;;4.47;2.83;;;;;;;;;;5019028;28;20081;-73
2022/05/17 05:26:10;;;;;;;5.60;3.03;;;;;;;;;;5018183;28;20052;-72
2022/05/17 05:28:39;;;;;;;6.90;3.45;;;;;;;;;;5015443;28;20474;-73
2022/05/17 05:31:07;;;;;;;5.75;2.92;;;;;;;;;;5029839;28;20140;-72
2022/05/17 05:33:35;;;;;;;5.45;3.20;;;;;;;;;;5022184;28;20057;-72
2022/05/17 05:36:07;;;;;;;5.65;3.35;;;;;;;;;;5019993;28;20054;-72
2022/05/17 05:38:36;;;;;;;5.35;3.13;;;;;;;;;;5023196;28;20084;-73
2022/05/17 05:41:10;;;;;;;7.25;3.58;;;;;;;;;;5028838;28;20120;-72
2022/05/17 05:43:38;;;;;;;8.77;3.75;;;;;;;;;;5026051;28;20152;-73
2022/05/17 05:46:07;;;;;;;7.13;3.20;;;;;;;;;;5024641;28;20073;-73
2022/05/17 05:48:36;;;;;;;5.60;3.40;;;;;;;;;;5029891;28;20049;-72
2022/05/17 05:51:07;;;;;;;5.35;3.33;;;;;;;;;;5030792;28;20061;-72
2022/05/17 05:53:38;;;;;;;8.02;3.90;;;;;;;;;;5033105;28;20057;-72
2022/05/17 05:56:06;;;;;;;5.03;2.75;;;;;;;;;;5020128;28;20049;-72
2022/05/17 05:58:36;;;;;;;9.60;3.15;;;;;;;;;;5028198;28;20038;-73
2022/05/17 06:01:07;;;;;;;7.05;3.22;;;;;;;;;;5023807;28;20045;-72
2022/05/17 06:03:36;;;;;;;6.22;3.50;;;;;;;;;;5022489;28;20049;-73
2022/05/17 06:06:09;;;;;;;5.28;2.65;;;;;;;;;;5023252;28;20048;-73
2022/05/17 06:08:39;;;;;;;10.48;3.72;;;;;;;;;;5025003;28;20061;-73
2022/05/17 06:11:07;;;;;;;5.30;2.47;;;;;;;;;;5020651;28;20426;-73
2022/05/17 06:13:36;;;;;;;8.95;2.72;;;;;;;;;;5029960;28;20056;-72
2022/05/17 06:16:08;;;;;;;8.50;3.47;;;;;;;;;;5030040;28;21000;-72
2022/05/17 06:18:37;;;;;;;7.10;3.65;;;;;;;;;;5024165;28;20464;-73
2022/05/17 06:21:09;;;;;;;6.40;3.80;;;;;;;;;;5019280;28;20042;-74
2022/05/17 06:23:39;;;;;;;10.05;3.97;;;;;;;;;;5022939;28;20453;-74
2022/05/17 06:26:07;;;;;;;9.75;4.65;;;;;;;;;;5029192;28;20523;-74
2022/05/17 06:28:36;;;;;;;5.90;3.83;;;;;;;;;;5025891;28;20049;-73
2022/05/17 06:31:08;;;;;;;8.18;3.95;;;;;;;;;;5031330;28;20068;-75
2022/05/17 06:33:39;;;;;;;7.90;3.65;;;;;;;;;;5033950;28;20046;-76
2022/05/17 06:36:11;;;;;;;7.30;3.70;;;;;;;;;;5022999;28;20049;-74
2022/05/17 06:38:41;;;;;;;8.93;4.20;;;;;;;;;;5025311;28;20049;-75
2022/05/17 06:41:09;;;;;;;8.35;4.05;;;;;;;;;;5032652;28;20077;-76
2022/05/17 06:43:37;;;;;;;7.30;4.03;;;;;;;;;;5031600;28;20115;-77
2022/05/17 06:46:09;;;;;;;7.70;4.18;;;;;;;;;;5029570;28;20064;-77
2022/05/17 06:48:37;;;;;;;7.43;4.05;;;;;;;;;;5031479;28;20045;-77
2022/05/17 06:51:10;;;;;;;6.82;3.60;;;;;;;;;;5035006;28;20046;-76
2022/05/17 06:53:38;;;;;;;8.75;3.58;;;;;;;;;;5023503;28;20115;-76
2022/05/17 06:56:11;;;;;;;8.45;3.63;;;;;;;;;;5033521;28;20045;-75
2022/05/17 06:58:39;;;;;;;8.55;4.05;;;;;;;;;;5030900;28;20049;-77
2022/05/17 07:01:08;;;;;;;11.13;3.42;;;;;;;;;;5031255;28;20076;-75
2022/05/17 07:03:37;;;;;;;10.60;4.28;;;;;;;;;;5016896;28;20631;-75
2022/05/17 07:06:08;;;;;;;6.65;3.22;;;;;;;;;;5027739;28;20079;-75
2022/05/17 07:08:36;;;;;;;5.75;2.92;;;;;;;;;;5031962;28;20077;-75
2022/05/17 07:13:56;;;;;;;6.05;3.47;;;;;;;;;;5029061;28;20050;-75
2022/05/17 07:16:24;;;;;;;6.85;3.47;;;;;;;;;;5026864;28;20501;-74
2022/05/17 07:18:53;;;;;;;8.10;3.78;;;;;;;;;;5014421;28;20137;-74
2022/05/17 07:21:41;;;;;;;7.10;3.55;;;;;;;;;;5030386;28;20053;-74
2022/05/17 07:24:10;;;;;;;8.10;3.83;;;;;;;;;;5020890;28;20103;-75
2022/05/17 07:26:38;;;;;;;9.48;3.67;;;;;;;;;;5030526;28;20049;-71
2022/05/17 07:29:27;;;;;;;6.57;3.72;;;;;;;;;;5019216;28;20096;-74
2022/05/17 07:31:55;;;;;;;6.38;3.78;;;;;;;;;;5024252;28;20045;-74
2022/05/17 07:34:26;;;;;;;6.93;4.10;;;;;;;;;;5017184;28;20050;-72
2022/05/17 07:36:55;;;;;;;9.48;4.00;;;;;;;;;;5026148;28;20457;-72
2022/05/17 07:39:23;;;;;;;7.75;3.95;;;;;;;;;;5020367;28;20056;-73
2022/05/17 07:41:52;;;;;;;8.05;4.53;;;;;;;;;;5025886;28;20076;-72
2022/05/17 07:44:21;;;;;;;7.78;3.83;;;;;;;;;;5030848;28;20125;-75
2022/05/17 07:46:50;;;;;;;9.65;3.75;;;;;;;;;;5021065;28;20069;-74
2022/05/17 07:49:19;;;;;;;9.77;4.28;;;;;;;;;;5014270;28;20482;-74
2022/05/17 07:51:47;;;;;;;7.03;3.70;;;;;;;;;;5012279;28;20088;-73
2022/05/17 07:54:15;;;;;;;7.00;3.53;;;;;;;;;;5015596;28;20049;-73
2022/05/17 07:56:44;;;;;;;5.90;3.50;;;;;;;;;;5031179;28;20050;-72
2022/05/17 07:59:12;;;;;;;7.93;3.60;;;;;;;;;;5023525;28;20073;-73
2022/05/17 08:01:41;;;;;;;5.53;3.50;;;;;;;;;;5025828;28;20056;-73
2022/05/17 08:04:11;;;;;;;8.25;3.45;;;;;;;;;;5021632;28;20058;-73
2022/05/17 08:06:39;;;;;;;5.80;3.67;;;;;;;;;;5025670;28;20057;-73
2022/05/17 08:09:08;;;;;;;5.47;3.70;;;;;;;;;;5023276;28;20057;-73
2022/05/17 08:11:36;;;;;;;5.28;3.10;;;;;;;;;;5024583;28;20538;-72
2022/05/17 08:14:05;;;;;;;6.13;3.20;;;;;;;;;;5021898;28;20081;-71
2022/05/17 08:16:42;;;;;;;5.60;3.55;;;;;;;;;;5028128;28;20050;-71
2022/05/17 08:19:12;;;;;;;6.03;3.65;;;;;;;;;;5029227;28;20564;-71
2022/05/17 08:21:41;;;;;;;7.15;3.05;;;;;;;;;;5029139;28;20076;-71
2022/05/17 08:24:09;;;;;;;7.78;3.38;;;;;;;;;;5029585;28;20045;-71
2022/05/17 08:29:26;;;;;;;6.47;3.60;;;;;;;;;;4997860;28;20049;-71
2022/05/17 08:34:42;;;;;;;8.02;3.90;;;;;;;;;;5029221;28;20497;-73
2022/05/17 08:37:11;;;;;;;5.45;3.30;;;;;;;;;;5026512;28;20556;-71
2022/05/17 08:39:39;;;;;;;7.65;3.28;;;;;;;;;;5023470;28;20046;-72
2022/05/17 08:42:15;;;;;;;4.72;2.63;;;;;;;;;;5027754;28;20049;-71
2022/05/17 08:44:45;;;;;;;5.93;2.90;;;;;;;;;;5023894;28;20082;-70
2022/05/17 08:47:14;;;;;;;7.00;3.25;;;;;;;;;;5028930;28;20053;-71
2022/05/17 08:50:06;;;;;;;5.65;3.20;;;;;;;;;;5024927;28;20663;-71
2022/05/17 08:52:37;;;;;;;5.03;2.65;;;;;;;;;;5020577;28;20049;-72
2022/05/17 08:55:14;;;;;;;5.78;3.28;;;;;;;;;;5028912;28;20049;-71
2022/05/17 08:57:43;;;;;;;5.65;3.30;;;;;;;;;;5022810;28;20060;-71
2022/05/17 09:00:20;;;;;;;4.53;2.80;;;;;;;;;;5027875;28;20437;-71
2022/05/17 09:02:51;;;;;;;6.25;2.80;;;;;;;;;;5025353;28;20041;-71
2022/05/17 09:05:30;;;;;;;3.47;2.90;;;;;;;;;;5046061;28;20073;-71
2022/05/17 09:08:01;;;;;;;5.60;3.25;;;;;;;;;;5031207;28;20045;-72
2022/05/17 09:10:35;;;;;;;4.97;2.47;;;;;;;;;;5027346;28;20084;-71
2022/05/17 09:13:06;;;;;;;5.43;2.67;;;;;;;;;;5022816;28;20042;-71
2022/05/17 09:15:34;;;;;;;4.07;2.60;;;;;;;;;;5028988;28;20084;-71
2022/05/17 09:18:05;;;;;;;4.40;3.20;;;;;;;;;;5028003;28;20580;-72
2022/05/17 09:20:37;;;;;;;4.13;2.70;;;;;;;;;;5017595;28;20050;-72
2022/05/17 09:23:06;;;;;;;4.30;2.75;;;;;;;;;;5033228;28;20049;-71
2022/05/17 09:25:52;;;;;;;5.55;2.60;;;;;;;;;;5026666;28;20100;-71
2022/05/17 09:28:21;;;;;;;5.43;2.88;;;;;;;;;;5014854;28;20081;-70
2022/05/17 09:30:50;;;;;;;4.68;2.72;;;;;;;;;;5021158;28;20130;-71
2022/05/17 09:33:21;;;;;;;5.18;2.95;;;;;;;;;;5021425;28;20160;-71
2022/05/17 09:35:57;;;;;;;5.35;2.63;;;;;;;;;;5030261;28;20049;-71
2022/05/17 09:38:25;;;;;;;4.20;2.83;;;;;;;;;;5021691;28;20053;-71
2022/05/17 09:41:00;;;;;;;7.93;3.10;;;;;;;;;;5031442;28;20076;-71
2022/05/17 09:43:43;;;;;;;3.70;2.67;;;;;;;;;;5030416;28;20049;-71
2022/05/17 09:46:12;;;;;;;7.63;2.67;;;;;;;;;;5021871;28;20100;-72
2022/05/17 09:54:29;;;;;;;4.28;2.45;;;;;;;;;;5013570;28;20104;-71
2022/05/17 09:57:11;;;;;;;4.43;2.67;;;;;;;;;;5025698;28;20060;-71
2022/05/17 09:59:40;;;;;;;4.13;2.05;;;;;;;;;;4991825;28;20486;-73
2022/05/17 10:02:26;;;;;;;3.15;2.10;;;;;;;;;;4999717;28;20049;-71
2022/05/17 10:04:55;;;;;;;2.45;1.52;;;;;;;;;;4989009;28;20054;-70
2022/05/17 10:07:26;;;;;;;6.72;2.17;;;;;;;;;;4986661;28;20133;-71
2022/05/17 10:09:54;;;;;;;2.97;1.80;;;;;;;;;;4988104;28;20533;-70
2022/05/17 10:12:27;;;;;;;5.28;2.20;;;;;;;;;;4982515;28;20069;-70
2022/05/17 10:14:58;;;;;;;3.83;2.33;;;;;;;;;;4985846;28;20093;-74
2022/05/17 10:17:30;;;;;;;3.78;1.55;;;;;;;;;;4994112;28;20046;-71
2022/05/17 10:20:00;;;;;;;4.43;2.10;;;;;;;;;;5008927;28;20477;-70
2022/05/17 10:22:32;;;;;;;6.25;1.58;;;;;;;;;;5005077;28;20493;-71
2022/05/17 10:25:02;;;;;;;5.15;1.80;;;;;;;;;;5006440;28;20138;-71
2022/05/17 10:27:33;;;;;;;2.05;1.50;;;;;;;;;;5009086;28;20054;-70
2022/05/17 10:30:04;;;;;;;3.00;1.52;;;;;;;;;;5012031;28;20080;-72
2022/05/17 10:32:34;;;;;;;3.30;2.03;;;;;;;;;;4999757;28;20092;-70
2022/05/17 10:35:12;;;;;;;6.45;2.28;;;;;;;;;;5006237;28;20081;-71
2022/05/17 10:37:45;;;;;;;6.88;2.10;;;;;;;;;;5003251;28;20136;-71
2022/05/17 10:40:14;;;;;;;3.80;2.50;;;;;;;;;;5004089;28;20041;-71
2022/05/17 10:42:43;;;;;;;3.90;1.85;;;;;;;;;;5009628;28;20053;-72
2022/05/17 10:45:12;;;;;;;2.40;1.77;;;;;;;;;;5008898;28;20152;-71
2022/05/17 10:47:48;;;;;;;3.08;1.58;;;;;;;;;;4993002;28;20109;-71
2022/05/17 10:50:35;;;;;;;4.97;1.70;;;;;;;;;;5002040;28;20536;-70
2022/05/17 10:53:11;;;;;;;4.47;1.80;;;;;;;;;;5009187;28;20073;-71
2022/05/17 10:55:45;;;;;;;3.63;1.80;;;;;;;;;;4999238;28;20384;-70
2022/05/17 10:58:18;;;;;;;3.42;1.83;;;;;;;;;;5002464;28;20490;-70
2022/05/17 11:00:49;;;;;;;3.28;1.80;;;;;;;;;;4998562;28;20049;-70
2022/05/17 11:03:35;;;;;;;3.67;2.00;;;;;;;;;;5007164;28;20046;-71
2022/05/17 11:06:13;;;;;;;4.55;2.03;;;;;;;;;;5025675;28;20120;-71
2022/05/17 11:08:46;;;;;;;4.03;2.10;;;;;;;;;;5026184;28;20448;-71
2022/05/17 11:11:26;;;;;;;5.07;2.03;;;;;;;;;;5026511;28;20049;-70
2022/05/17 11:13:56;;;;;;;4.32;1.92;;;;;;;;;;5026955;28;20058;-71
2022/05/17 11:16:27;;;;;;;2.58;1.67;;;;;;;;;;5024264;28;20050;-71
2022/05/17 11:18:59;;;;;;;3.15;1.50;;;;;;;;;;5027044;28;20041;-70
2022/05/17 11:21:32;;;;;;;3.80;1.80;;;;;;;;;;5030056;28;20068;-70
2022/05/17 11:24:08;;;;;;;4.78;1.60;;;;;;;;;;5025496;28;20049;-71
2022/05/17 11:26:44;;;;;;;2.92;1.40;;;;;;;;;;5028329;28;20045;-71
2022/05/17 11:29:22;;;;;;;3.08;1.60;;;;;;;;;;5026804;28;20076;-71
2022/05/17 11:31:55;;;;;;;3.13;1.60;;;;;;;;;;5023937;28;20136;-72
2022/05/17 11:34:28;;;;;;;3.00;1.98;;;;;;;;;;5020907;28;20073;-72
2022/05/17 11:36:57;;;;;;;3.20;1.67;;;;;;;;;;5026909;28;20482;-71
2022/05/17 11:39:48;;;;;;;2.63;1.73;;;;;;;;;;5026828;28;20454;-74
2022/05/17 11:42:34;;;;;;;2.08;1.50;;;;;;;;;;5026326;28;20053;-73
2022/05/17 11:45:18;;;;;;;3.10;1.85;;;;;;;;;;5023324;28;20514;-72
2022/05/17 11:47:49;;;;;;;3.78;1.55;;;;;;;;;;5022059;28;20868;-71
2022/05/17 11:50:24;;;;;;;4.15;1.80;;;;;;;;;;5030042;28;20060;-71
2022/05/17 11:52:57;;;;;;;4.15;1.83;;;;;;;;;;5029653;28;20556;-72
2022/05/17 11:55:30;;;;;;;5.95;2.05;;;;;;;;;;5023574;28;20073;-71
2022/05/17 11:58:04;;;;;;;3.00;1.60;;;;;;;;;;5025133;28;20485;-71
2022/05/17 12:00:47;;;;;;;4.50;1.83;;;;;;;;;;5018802;28;20048;-71
2022/05/17 12:03:43;;;;;;;3.25;1.95;;;;;;;;;;5021467;28;20037;-72
2022/05/17 12:06:11;;;;;;;;;;;;;;;;;;5016643;28;20057;-72
2022/05/17 12:08:43;;;;;;;3.65;1.65;;;;;;;;;;5022183;28;19921;-74
2022/05/17 12:11:22;;;;;;;3.30;2.00;;;;;;;;;;5022910;28;20485;-72
2022/05/17 12:14:08;;;;;;;2.47;1.67;;;;;;;;;;5024347;28;20049;-71
2022/05/17 12:16:37;;;;;;;5.28;2.13;;;;;;;;;;5016502;28;20077;-71
2022/05/17 12:19:10;;;;;;;3.75;2.17;;;;;;;;;;5026141;28;20052;-72
2022/05/17 12:21:46;;;;;;;4.68;1.70;;;;;;;;;;5024321;28;20099;-72
2022/05/17 12:24:19;;;;;;;3.42;1.90;;;;;;;;;;5028651;28;20077;-72
2022/05/17 12:26:53;;;;;;;2.50;1.75;;;;;;;;;;5027193;28;20490;-71
2022/05/17 12:32:11;;;;;;;4.47;1.63;;;;;;;;;;5017814;28;20569;-72
2022/05/17 12:34:39;;;;;;;2.20;1.80;;;;;;;;;;5017711;28;20041;-73
2022/05/17 12:37:09;;;;;;;5.70;1.85;;;;;;;;;;5015410;28;20058;-71
2022/05/17 12:45:13;;;;;;;3.50;1.80;;;;;;;;;;5025635;28;20053;-72
2022/05/17 12:47:45;;;;;;;4.85;2.00;;;;;;;;;;5013885;28;20353;-71
2022/05/17 12:50:15;;;;;;;2.88;1.92;;;;;;;;;;5024278;28;20056;-72
2022/05/17 12:52:46;;;;;;;2.97;1.77;;;;;;;;;;5023933;28;20057;-71
2022/05/17 12:55:19;;;;;;;2.47;1.67;;;;;;;;;;5017447;28;20350;-72
2022/05/17 12:57:52;;;;;;;2.78;2.42;;;;;;;;;;5028546;28;20132;-72
2022/05/17 13:00:25;;;;;;;3.13;1.80;;;;;;;;;;5017659;28;20593;-71
2022/05/17 13:02:58;;;;;;;2.95;2.25;;;;;;;;;;5020013;28;20049;-71
2022/05/17 13:05:27;;;;;;;3.42;1.90;;;;;;;;;;5020952;28;20504;-71
2022/05/17 13:08:04;;;;;;;3.65;2.05;;;;;;;;;;5010498;28;20057;-71
2022/05/17 13:10:33;;;;;;;3.70;1.88;;;;;;;;;;5024227;28;20576;-72
2022/05/17 13:13:15;;;;;;;4.50;2.55;;;;;;;;;;5023864;28;20046;-72
2022/05/17 13:15:45;;;;;;;6.88;2.30;;;;;;;;;;5012172;28;20061;-73
2022/05/17 13:18:14;;;;;;;4.15;2.38;;;;;;;;;;5010975;28;20050;-73
2022/05/17 13:20:48;;;;;;;5.20;1.92;;;;;;;;;;5025030;28;20049;-72
2022/05/17 13:23:17;;;;;;;4.10;2.03;;;;;;;;;;5024570;28;20099;-71
2022/05/17 13:25:47;;;;;;;2.53;2.13;;;;;;;;;;5021131;28;20482;-72
2022/05/17 13:28:26;;;;;;;2.63;1.75;;;;;;;;;;5016529;28;20111;-71
2022/05/17 13:31:03;;;;;;;5.47;1.52;;;;;;;;;;5026920;28;20045;-72
2022/05/17 13:33:37;;;;;;;3.40;1.67;;;;;;;;;;5018638;28;20146;-71
2022/05/17 13:36:09;;;;;;;4.25;1.80;;;;;;;;;;5035634;28;20131;-72
2022/05/17 13:38:38;;;;;;;4.40;1.30;;;;;;;;;;5019207;28;20364;-71
2022/05/17 13:41:17;;;;;;;2.05;1.35;;;;;;;;;;5022428;28;20077;-73
2022/05/17 13:43:55;;;;;;;2.72;1.50;;;;;;;;;;5026250;28;20100;-71
2022/05/17 13:46:25;;;;;;;3.50;1.52;;;;;;;;;;5022982;28;20050;-72
2022/05/17 13:49:00;;;;;;;4.38;1.75;;;;;;;;;;5021487;28;20092;-73
2022/05/17 13:51:32;;;;;;;3.35;1.83;;;;;;;;;;5023471;28;20077;-73
2022/05/17 13:54:03;;;;;;;2.90;1.58;;;;;;;;;;5018645;28;20050;-71
2022/05/17 13:56:35;;;;;;;3.83;1.55;;;;;;;;;;5014422;28;20374;-71
2022/05/17 13:59:05;;;;;;;3.92;1.52;;;;;;;;;;5021993;28;20077;-72
2022/05/17 14:01:35;;;;;;;2.92;1.50;;;;;;;;;;5020173;28;20073;-73
2022/05/17 14:04:10;;;;;;;1.70;1.27;;;;;;;;;;5028543;28;20054;-72
2022/05/17 14:06:39;;;;;;;;;;;;;;;;;;5023556;28;20445;-71
2022/05/17 14:11:59;;;;;;;3.35;1.45;;;;;;;;;;5017853;28;20502;-72
2022/05/17 14:14:29;;;;;;;1.80;1.48;;;;;;;;;;5024812;28;20049;-73
2022/05/17 14:17:01;;;;;;;2.60;1.80;;;;;;;;;;5021162;28;20539;-71
2022/05/17 14:19:32;;;;;;;2.75;1.50;;;;;;;;;;5014448;28;20666;-70
2022/05/17 14:22:01;;;;;;;3.90;1.90;;;;;;;;;;5020161;28;20353;-71
2022/05/17 14:24:30;;;;;;;2.10;1.30;;;;;;;;;;5023720;28;20057;-70
2022/05/17 14:26:59;;;;;;;2.20;1.40;;;;;;;;;;5020367;28;20141;-70
2022/05/17 14:29:30;;;;;;;2.13;1.70;;;;;;;;;;5026360;28;20045;-71
2022/05/17 14:32:01;;;;;;;1.67;1.52;;;;;;;;;;5019779;28;20037;-71
2022/05/17 14:34:39;;;;;;;6.00;1.60;;;;;;;;;;5023030;28;20456;-70
2022/05/17 14:37:08;;;;;;;2.45;1.27;;;;;;;;;;5026463;28;20057;-71
2022/05/17 14:39:36;;;;;;;2.08;1.40;;;;;;;;;;5022922;28;20505;-71
2022/05/17 14:42:05;;;;;;;2.20;1.77;;;;;;;;;;5024097;28;20046;-72
2022/05/17 14:44:33;;;;;;;1.70;1.50;;;;;;;;;;5024479;28;20120;-70
2022/05/17 14:47:06;;;;;;;2.60;1.90;;;;;;;;;;5019974;28;20049;-71
2022/05/17 14:49:36;;;;;;;1.92;1.50;;;;;;;;;;5027677;28;20103;-71
2022/05/17 14:52:05;;;;;;;2.63;1.52;;;;;;;;;;5025631;28;20057;-71
2022/05/17 14:54:35;;;;;;;4.85;1.92;;;;;;;;;;5017397;28;20108;-70
2022/05/17 14:57:04;;;;;;;5.18;1.52;;;;;;;;;;5027272;28;20093;-70
2022/05/17 14:59:32;;;;;;;4.60;1.58;;;;;;;;;;5020351;28;20074;-71
2022/05/17 15:02:02;;;;;;;1.90;1.58;;;;;;;;;;5026292;28;20045;-72
2022/05/17 15:04:32;;;;;;;4.85;1.73;;;;;;;;;;5023696;28;20417;-71
2022/05/17 15:07:04;;;;;;;3.00;1.73;;;;;;;;;;5030364;28;20046;-73
2022/05/17 15:09:34;;;;;;;2.63;1.90;;;;;;;;;;5019058;28;20058;-72
2022/05/17 15:12:04;;;;;;;3.97;1.50;;;;;;;;;;5025275;28;20099;-70
2022/05/17 15:14:33;;;;;;;2.10;1.38;;;;;;;;;;5028336;28;20095;-70
2022/05/17 15:17:02;;;;;;;2.08;1.38;;;;;;;;;;5029460;28;20045;-71
2022/05/17 15:19:34;;;;;;;2.58;1.77;;;;;;;;;;5028934;28;20104;-70
2022/05/17 15:22:06;;;;;;;2.60;1.63;;;;;;;;;;5028635;28;20382;-71
2022/05/17 15:24:35;;;;;;;2.53;1.60;;;;;;;;;;5025946;28;20076;-71
2022/05/17 15:27:05;;;;;;;2.00;1.67;;;;;;;;;;5028114;28;20493;-71
2022/05/17 15:29:33;;;;;;;2.53;1.80;;;;;;;;;;5028478;28;20425;-70